.
WxDataArchive / Data Records for 2014-05-14
2014-05-13 May 2014 2014-05-15

Data Records for Wednesday, 14 May 2014

Time	Temp	Chill	HIndex	Humid	Dewpt	 Wind 	HiWind	WindDir	Rain 	Barom
-----	----	-----	------	-----	-----	------	------	-------	-----	-----
00:00	57.6	57.6	57.6	92	55.3	2	4	292	0.00	30.065 
00:05	57.5	57.5	57.5	92	55.2	1	4	292	0.00	30.065 
00:10	57.5	57.5	57.5	92	55.2	2	3	292	0.00	30.065 
00:15	57.2	57.2	57.2	92	54.9	2	4	292	0.00	30.065 
00:20	57.0	57.0	57.0	92	54.7	1	3	292	0.00	30.065 
00:25	57.0	57.0	57.0	92	54.7	1	2	292	0.00	30.065 
00:30	56.9	56.9	56.9	92	54.6	1	3	292	0.00	30.063 
00:35	56.9	56.9	56.9	92	54.6	1	3	292	0.00	30.063 
00:40	56.7	56.7	56.7	92	54.4	1	3	292	0.00	30.063 
00:45	56.6	56.6	56.6	92	54.3	1	4	292	0.00	30.057 
00:50	56.5	56.5	56.5	92	54.2	1	4	292	0.00	30.057 
00:55	56.5	56.5	56.5	92	54.2	1	3	292	0.00	30.057 
01:00	56.3	56.3	56.3	92	54.0	2	4	292	0.00	30.049 
01:05	56.2	56.2	56.2	92	53.9	1	3	292	0.00	30.049 
01:10	56.2	56.2	56.2	92	53.9	1	5	292	0.00	30.049 
01:15	56.0	56.0	56.0	92	53.7	0	3	292	0.00	30.059 
01:20	56.0	56.0	56.0	92	53.7	1	3	292	0.00	30.059 
01:25	55.9	55.9	55.9	92	53.6	1	2	292	0.00	30.059 
01:30	55.9	55.9	55.9	92	53.6	0	1	292	0.00	30.068 
01:35	55.7	55.7	55.7	92	53.4	0	1	292	0.00	30.068 
01:40	55.7	55.7	55.7	92	53.4	0	1	292	0.00	30.068 
01:45	55.6	55.6	55.6	92	53.3	0	2	292	0.00	30.067 
01:50	55.1	55.1	55.1	91	52.5	1	4	292	0.00	30.067 
01:55	55.1	55.1	55.1	91	52.5	1	3	292	0.00	30.067 
02:00	55.1	55.1	55.1	91	52.5	0	2	292	0.00	30.067 
02:05	55.0	55.0	55.0	91	52.4	1	4	292	0.00	30.067 
02:10	55.0	55.0	55.0	90	52.1	1	2	292	0.00	30.067 
02:15	55.0	55.0	55.0	90	52.1	0	1	292	0.00	30.082 
02:20	55.1	55.1	55.1	90	52.2	0	2	292	0.00	30.082 
02:25	55.0	55.0	55.0	90	52.1	0	2	292	0.00	30.082 
02:30	55.1	55.1	55.1	90	52.2	0	1	292	0.00	30.091 
02:35	55.1	55.1	55.1	90	52.2	0	1	292	0.00	30.091 
02:40	55.1	55.1	55.1	89	51.9	0	2	292	0.00	30.091 
02:45	55.1	55.1	55.1	89	51.9	0	2	292	0.00	30.091 
02:50	55.1	55.1	55.1	89	51.9	0	1	292	0.00	30.091 
02:55	55.1	55.1	55.1	89	51.9	0	1	292	0.00	30.091 
03:00	55.0	55.0	55.0	89	51.8	0	2	292	0.00	30.082 
03:05	55.0	55.0	55.0	89	51.8	0	0	---	0.00	30.082 
03:10	55.1	55.1	55.1	89	51.9	0	1	292	0.00	30.082 
03:15	55.1	55.1	55.1	89	51.9	0	1	292	0.00	30.089 
03:20	55.0	55.0	55.0	89	51.8	0	1	292	0.00	30.089 
03:25	54.7	54.7	54.7	89	51.5	1	2	292	0.00	30.089 
03:30	54.5	54.5	54.5	89	51.3	1	4	292	0.00	30.072 
03:35	54.4	54.4	54.4	88	50.9	1	3	292	0.00	30.072 
03:40	54.2	54.2	54.2	88	50.7	1	3	292	0.01	30.072 
03:45	54.2	54.2	54.2	88	50.7	0	3	292	0.00	30.078 
03:50	54.1	54.1	54.1	88	50.6	0	2	292	0.00	30.078 
03:55	54.1	54.1	54.1	88	50.6	0	3	292	0.00	30.078 
04:00	54.1	54.1	54.1	88	50.6	0	2	292	0.00	30.083 
04:05	53.9	53.9	53.9	88	50.4	0	1	292	0.00	30.083 
04:10	53.9	53.9	53.9	88	50.4	0	0	---	0.00	30.083 
04:15	53.9	53.9	53.9	88	50.4	0	1	292	0.00	30.083 
04:20	53.8	53.8	53.8	88	50.3	0	2	292	0.00	30.083 
04:25	53.8	53.8	53.8	88	50.3	0	1	292	0.00	30.083 
04:30	53.8	53.8	53.8	88	50.3	0	0	---	0.00	30.092 
04:35	53.8	53.8	53.8	89	50.6	0	1	292	0.00	30.092 
04:40	53.8	53.8	53.8	89	50.6	0	1	292	0.00	30.092 
04:45	53.8	53.8	53.8	89	50.6	0	1	292	0.00	30.094 
04:50	53.8	53.8	53.8	89	50.6	0	1	292	0.00	30.094 
04:55	53.8	53.8	53.8	89	50.6	0	0	---	0.00	30.094 
05:00	53.6	53.6	53.6	89	50.4	0	0	---	0.00	30.077 
05:05	53.6	53.6	53.6	89	50.4	0	0	---	0.00	30.077 
05:10	53.6	53.6	53.6	90	50.7	0	1	292	0.00	30.077 
05:15	53.6	53.6	53.6	90	50.7	0	1	292	0.00	30.077 
05:20	53.6	53.6	53.6	90	50.7	0	0	---	0.00	30.077 
05:25	53.6	53.6	53.6	90	50.7	0	0	---	0.00	30.077 
05:30	53.6	53.6	53.6	90	50.7	0	0	---	0.00	30.087 
05:35	53.6	53.6	53.6	90	50.7	0	0	---	0.00	30.087 
05:40	53.6	53.6	53.6	90	50.7	0	0	---	0.00	30.087 
05:45	53.6	53.6	53.6	90	50.7	0	0	---	0.00	30.090 
05:50	53.6	53.6	53.6	91	51.0	0	0	---	0.00	30.090 
05:55	53.6	53.6	53.6	91	51.0	0	1	292	0.00	30.090 
06:00	53.8	53.8	53.8	91	51.2	0	0	---	0.00	30.094 
06:05	53.6	53.6	53.6	91	51.0	0	0	---	0.00	30.094 
06:10	53.6	53.6	53.6	91	51.0	0	1	292	0.00	30.094 
06:15	53.6	53.6	53.6	91	51.0	0	0	---	0.00	30.091 
06:20	53.5	53.5	53.5	91	50.9	0	1	292	0.00	30.091 
06:25	53.5	53.5	53.5	91	50.9	0	1	292	0.00	30.091 
06:30	53.5	53.5	53.5	91	50.9	0	1	292	0.00	30.093 
06:35	53.5	53.5	53.5	91	50.9	0	1	292	0.00	30.093 
06:40	53.3	53.3	53.3	91	50.7	0	0	---	0.00	30.093 
06:45	53.3	53.3	53.3	91	50.7	0	0	---	0.00	30.098 
06:50	53.3	53.3	53.3	91	50.7	0	0	---	0.00	30.098 
06:55	53.3	53.3	53.3	91	50.7	0	0	---	0.00	30.098 
07:00	53.3	53.3	53.3	91	50.7	0	1	292	0.00	30.097 
07:05	53.3	53.3	53.3	91	50.7	0	0	---	0.00	30.097 
07:10	53.5	53.5	53.5	91	50.9	0	0	---	0.00	30.097 
07:15	53.5	53.5	53.5	91	50.9	0	0	---	0.00	30.099 
07:20	53.5	53.5	53.5	91	50.9	0	0	---	0.00	30.099 
07:25	53.5	53.5	53.5	91	50.9	0	1	292	0.00	30.099 
07:30	53.6	53.6	53.6	91	51.0	0	0	---	0.00	30.099 
07:35	53.6	53.6	53.6	91	51.0	0	1	292	0.00	30.099 
07:40	53.6	53.6	53.6	90	50.7	0	1	292	0.00	30.099 
07:45	53.6	53.6	53.6	90	50.7	0	2	292	0.00	30.099 
07:50	53.6	53.6	53.6	90	50.7	0	1	292	0.00	30.099 
07:55	53.6	53.6	53.6	90	50.7	0	1	292	0.00	30.099 
08:00	53.6	53.6	53.6	90	50.7	0	1	292	0.00	30.111 
08:05	53.6	53.6	53.6	90	50.7	0	1	292	0.00	30.111 
08:10	53.8	53.8	53.8	90	50.9	0	1	292	0.00	30.111 
08:15	53.8	53.8	53.8	89	50.6	0	1	292	0.00	30.100 
08:20	54.1	54.1	54.1	89	50.9	0	1	292	0.00	30.100 
08:25	54.8	54.8	54.8	89	51.6	0	2	292	0.00	30.100 
08:30	55.1	55.1	55.1	88	51.6	0	2	292	0.00	30.098 
08:35	55.3	55.3	55.3	87	51.5	1	2	292	0.00	30.098 
08:40	55.1	55.1	55.1	85	50.7	0	3	292	0.00	30.098 
08:45	55.3	55.3	55.3	85	50.9	0	1	292	0.00	30.101 
08:50	55.4	55.4	55.4	84	50.6	0	2	292	0.00	30.101 
08:55	55.6	55.6	55.6	83	50.5	0	3	292	0.00	30.101 
09:00	55.4	55.4	55.4	83	50.3	1	4	292	0.00	30.108 
09:05	55.6	55.6	55.6	83	50.5	0	1	292	0.00	30.108 
09:10	55.4	55.4	55.4	82	50.0	1	4	292	0.00	30.108 
09:15	55.4	55.4	55.4	82	50.0	0	2	292	0.00	30.110 
09:20	55.6	55.6	55.6	82	50.2	1	3	292	0.00	30.110 
09:25	55.7	55.7	55.7	82	50.3	0	2	292	0.00	30.110 
09:30	55.7	55.7	55.7	82	50.3	0	2	292	0.00	30.115 
09:35	55.9	55.9	55.9	82	50.5	0	2	292	0.00	30.115 
09:40	55.9	55.9	55.9	81	50.2	0	1	292	0.00	30.115 
09:45	56.0	56.0	56.0	81	50.3	0	2	292	0.00	30.094 
09:50	56.2	56.2	56.2	81	50.4	0	4	292	0.00	30.094 
09:55	56.3	56.3	56.3	80	50.2	0	2	292	0.00	30.094 
10:00	56.5	56.5	56.5	79	50.1	1	3	135	0.00	30.099 
10:05	56.6	56.6	56.6	80	50.5	0	1	135	0.00	30.099 
10:10	56.9	56.9	56.9	80	50.8	0	2	135	0.00	30.099 
10:15	56.9	56.9	56.9	78	50.1	0	2	135	0.00	30.099 
10:20	56.9	56.9	56.9	78	50.1	0	3	45	0.00	30.099 
10:25	56.9	56.9	56.9	77	49.8	0	2	45	0.00	30.099 
10:30	57.0	57.0	57.0	78	50.2	0	3	68	0.00	30.100 
10:35	57.0	57.0	57.0	77	49.9	0	2	45	0.00	30.100 
10:40	57.0	57.0	57.0	76	49.5	1	3	45	0.00	30.100 
10:45	57.0	57.0	57.0	76	49.5	0	3	45	0.00	30.103 
10:50	57.2	57.2	57.2	77	50.1	0	3	45	0.00	30.103 
10:55	57.0	57.0	57.0	76	49.5	0	2	112	0.00	30.103 
11:00	57.0	57.0	57.0	76	49.5	1	3	112	0.00	30.102 
11:05	57.2	57.2	57.2	77	50.1	0	3	22	0.00	30.102 
11:10	57.3	57.3	57.3	77	50.1	0	3	22	0.00	30.102 
11:15	57.3	57.3	57.3	76	49.8	1	4	90	0.00	30.106 
11:20	57.5	57.5	57.5	76	50.0	0	3	90	0.00	30.106 
11:25	57.6	57.6	57.6	76	50.1	1	4	90	0.00	30.106 
11:30	57.8	57.8	57.8	76	50.3	1	3	90	0.00	30.102 
11:35	57.8	57.8	57.8	77	50.6	1	3	90	0.00	30.102 
11:40	58.0	58.0	58.0	75	50.1	1	3	90	0.00	30.102 
11:45	58.0	58.0	58.0	77	50.8	0	3	45	0.00	30.109 
11:50	57.8	57.8	57.8	77	50.6	0	1	45	0.00	30.109 
11:55	57.6	57.6	57.6	77	50.4	0	1	45	0.00	30.109 
12:00	57.5	57.5	57.5	78	50.7	0	2	45	0.00	30.116 
12:05	57.3	57.3	57.3	80	51.2	0	2	45	0.00	30.116 
12:10	57.2	57.2	57.2	81	51.4	0	2	45	0.01	30.116 
12:15	57.0	57.0	57.0	82	51.6	0	1	45	0.00	30.119 
12:20	56.9	56.9	56.9	84	52.1	0	1	45	0.01	30.119 
12:25	56.7	56.7	56.7	84	51.9	0	0	---	0.01	30.119 
12:30	56.7	56.7	56.7	86	52.6	0	1	45	0.01	30.103 
12:35	56.7	56.7	56.7	86	52.6	0	0	---	0.00	30.103 
12:40	56.6	56.6	56.6	87	52.8	0	2	45	0.01	30.103 
12:45	56.5	56.5	56.5	87	52.7	0	2	45	0.00	30.087 
12:50	56.5	56.5	56.5	87	52.7	1	3	45	0.00	30.087 
12:55	56.5	56.5	56.5	88	53.0	0	2	45	0.00	30.087 
13:00	56.5	56.5	56.5	88	53.0	0	3	22	0.01	30.058 
13:05	56.5	56.5	56.5	88	53.0	1	3	270	0.00	30.058 
13:10	56.3	56.3	56.3	89	53.1	0	2	270	0.00	30.058 
13:15	56.5	56.5	56.5	89	53.3	0	5	112	0.00	30.044 
13:20	56.3	56.3	56.3	89	53.1	1	4	112	0.00	30.044 
13:25	56.5	56.5	56.5	89	53.3	0	3	112	0.00	30.044 
13:30	56.5	56.5	56.5	89	53.3	1	3	112	0.00	30.039 
13:35	56.5	56.5	56.5	89	53.3	1	3	45	0.00	30.039 
13:40	56.5	56.5	56.5	88	53.0	1	4	112	0.00	30.039 
13:45	56.3	56.3	56.3	89	53.1	0	2	112	0.00	30.049 
13:50	56.3	56.3	56.3	89	53.1	0	2	112	0.01	30.049 
13:55	56.3	56.3	56.3	89	53.1	1	4	112	0.02	30.049 
14:00	56.2	56.2	56.2	90	53.3	0	2	112	0.01	30.041 
14:05	56.0	56.0	56.0	90	53.1	0	3	112	0.00	30.041 
14:10	55.7	55.7	55.7	89	52.5	0	2	112	0.02	30.041 
14:15	55.7	55.7	55.7	90	52.8	0	3	112	0.05	30.049 
14:20	55.7	55.7	55.7	91	53.1	0	3	112	0.01	30.049 
14:25	55.7	55.7	55.7	91	53.1	0	1	112	0.01	30.049 
14:30	55.9	55.9	55.9	91	53.3	0	3	112	0.01	30.044 
14:35	56.0	56.0	56.0	92	53.7	0	2	112	0.01	30.044 
14:40	56.2	56.2	56.2	92	53.9	1	3	112	0.00	30.044 
14:45	56.0	56.0	56.0	92	53.7	1	3	90	0.01	30.025 
14:50	56.0	56.0	56.0	92	53.7	0	1	90	0.00	30.025 
14:55	56.0	56.0	56.0	92	53.7	1	3	90	0.00	30.025 
15:00	56.0	56.0	56.0	92	53.7	1	4	90	0.00	30.018 
15:05	56.2	56.2	56.2	92	53.9	1	3	90	0.00	30.018 
15:10	55.9	55.9	55.9	92	53.6	1	3	90	0.00	30.018 
15:15	55.7	55.7	55.7	92	53.4	1	4	90	0.00	30.004 
15:20	55.4	55.4	55.4	92	53.1	1	4	112	0.00	30.004 
15:25	55.1	55.1	55.1	92	52.8	1	4	45	0.01	30.004 
15:30	55.1	55.1	55.1	92	52.8	1	5	112	0.00	29.996 
15:35	55.1	55.1	55.1	92	52.8	1	4	112	0.00	29.996 
15:40	55.0	55.0	55.0	92	52.7	1	3	315	0.00	29.996 
15:45	54.8	54.8	54.8	92	52.5	0	3	315	0.01	30.002 
15:50	54.7	54.7	54.7	92	52.4	1	3	292	0.01	30.002 
15:55	54.5	54.5	54.5	92	52.2	1	3	292	0.01	30.002 
16:00	54.5	54.5	54.5	92	52.2	0	1	292	0.02	30.013 
16:05	54.4	54.4	54.4	92	52.1	1	4	270	0.01	30.013 
16:10	54.5	54.5	54.5	92	52.2	0	1	270	0.01	30.013 
16:15	54.7	54.7	54.7	93	52.7	0	1	270	0.00	30.007 
16:20	54.7	54.7	54.7	92	52.4	0	4	112	0.01	30.007 
16:25	54.7	54.7	54.7	93	52.7	0	1	112	0.01	30.007 
16:30	54.7	54.7	54.7	93	52.7	0	1	112	0.00	30.006 
16:35	54.7	54.7	54.7	93	52.7	0	1	112	0.00	30.006 
16:40	54.5	54.5	54.5	93	52.5	0	2	112	0.00	30.006 
16:45	54.5	54.5	54.5	93	52.5	0	2	112	0.01	30.000 
16:50	54.5	54.5	54.5	93	52.5	0	3	112	0.00	30.000 
16:55	54.4	54.4	54.4	93	52.4	1	3	22	0.00	30.000 
17:00	54.4	54.4	54.4	93	52.4	1	6	292	0.00	30.002 
17:05	54.4	54.4	54.4	93	52.4	1	3	338	0.00	30.002 
17:10	54.5	54.5	54.5	93	52.5	1	4	270	0.00	30.002 
17:15	54.7	54.7	54.7	94	53.0	1	3	270	0.00	29.986 
17:20	54.5	54.5	54.5	93	52.5	1	6	338	0.01	29.986 
17:25	54.5	54.5	54.5	94	52.8	1	4	315	0.00	29.986 
17:30	54.5	54.5	54.5	94	52.8	1	5	315	0.00	29.982 
17:35	54.2	54.2	54.2	93	52.2	1	4	315	0.00	29.982 
17:40	54.2	54.2	54.2	94	52.5	1	5	315	0.00	29.982 
17:45	54.1	54.1	54.1	94	52.4	1	5	338	0.00	29.981 
17:50	53.9	53.9	53.9	94	52.2	1	4	315	0.00	29.981 
17:55	53.6	53.6	53.6	94	51.9	1	3	315	0.00	29.981 
18:00	53.5	53.5	53.5	94	51.8	1	3	315	0.00	29.982 
18:05	53.5	53.5	53.5	94	51.8	1	3	315	0.00	29.982 
18:10	53.5	53.5	53.5	94	51.8	1	4	315	0.00	29.982 
18:15	53.3	53.3	53.3	94	51.6	1	7	315	0.00	29.977 
18:20	53.2	53.2	53.2	94	51.5	1	7	292	0.00	29.977 
18:25	53.1	53.1	53.1	94	51.4	1	3	292	0.00	29.977 
18:30	53.2	53.2	53.2	94	51.5	0	1	292	0.00	29.976 
18:35	53.2	53.2	53.2	94	51.5	0	3	292	0.00	29.976 
18:40	53.2	53.2	53.2	94	51.5	0	4	292	0.00	29.976 
18:45	52.9	52.9	52.9	94	51.2	1	3	292	0.00	29.967 
18:50	52.8	52.8	52.8	94	51.1	0	3	45	0.00	29.967 
18:55	52.6	52.6	52.6	94	50.9	0	3	158	0.00	29.967 
19:00	52.6	52.6	52.6	94	50.9	0	3	158	0.00	29.967 
19:05	52.5	52.5	52.5	94	50.8	1	4	292	0.00	29.967 
19:10	52.5	52.5	52.5	94	50.8	0	3	292	0.00	29.967 
19:15	52.5	52.5	52.5	94	50.8	0	3	292	0.00	29.953 
19:20	52.6	52.6	52.6	94	50.9	0	2	292	0.00	29.953 
19:25	52.6	52.6	52.6	94	50.9	1	4	0	0.00	29.953 
19:30	52.6	52.6	52.6	94	50.9	0	4	90	0.00	29.934 
19:35	52.6	52.6	52.6	94	50.9	1	4	338	0.00	29.934 
19:40	52.6	52.6	52.6	94	50.9	0	3	338	0.01	29.934 
19:45	52.6	52.6	52.6	94	50.9	0	2	338	0.00	29.927 
19:50	52.6	52.6	52.6	95	51.2	1	4	338	0.00	29.927 
19:55	52.6	52.6	52.6	94	50.9	1	4	135	0.01	29.927 
20:00	52.6	52.6	52.6	95	51.2	1	3	68	0.01	29.918 
20:05	52.6	52.6	52.6	95	51.2	0	3	68	0.01	29.918 
20:10	52.6	52.6	52.6	95	51.2	1	9	112	0.00	29.918 
20:15	52.6	52.6	52.6	95	51.2	0	4	112	0.02	29.910 
20:20	52.6	52.6	52.6	95	51.2	1	7	68	0.00	29.910 
20:25	52.6	52.6	52.6	95	51.2	1	5	90	0.01	29.910 
20:30	52.6	52.6	52.6	95	51.2	1	3	45	0.00	29.904 
20:35	52.6	52.6	52.6	95	51.2	1	5	45	0.01	29.904 
20:40	52.6	52.6	52.6	95	51.2	0	2	45	0.01	29.904 
20:45	52.5	52.5	52.5	95	51.1	1	3	90	0.01	29.899 
20:50	52.5	52.5	52.5	95	51.1	1	3	68	0.02	29.899 
20:55	52.5	52.5	52.5	95	51.1	0	3	68	0.02	29.899 
21:00	52.6	52.6	52.6	95	51.2	0	2	68	0.01	29.891 
21:05	52.6	52.6	52.6	95	51.2	1	4	68	0.00	29.891 
21:10	52.8	52.8	52.8	95	51.4	1	3	68	0.00	29.891 
21:15	52.8	52.8	52.8	95	51.4	0	3	90	0.02	29.895 
21:20	52.8	52.8	52.8	95	51.4	1	6	90	0.01	29.895 
21:25	52.8	52.8	52.8	95	51.4	0	2	112	0.02	29.895 
21:30	52.9	52.9	52.9	95	51.5	0	1	112	0.02	29.900 
21:35	52.8	52.8	52.8	95	51.4	1	3	112	0.01	29.900 
21:40	52.9	52.9	52.9	95	51.5	0	5	135	0.01	29.900 
21:45	52.9	52.9	52.9	95	51.5	0	2	135	0.01	29.899 
21:50	53.1	53.1	53.1	95	51.7	0	2	135	0.01	29.899 
21:55	53.1	53.1	53.1	95	51.7	0	2	135	0.01	29.899 
22:00	53.1	53.1	53.1	95	51.7	0	2	135	0.03	29.916 
22:05	53.1	53.1	53.1	95	51.7	1	3	90	0.00	29.916 
22:10	53.2	53.2	53.2	95	51.8	1	3	315	0.01	29.916 
22:15	53.2	53.2	53.2	95	51.8	0	3	315	0.01	29.914 
22:20	53.2	53.2	53.2	95	51.8	1	3	315	0.01	29.914 
22:25	53.2	53.2	53.2	95	51.8	1	3	315	0.01	29.914 
22:30	53.1	53.1	53.1	95	51.7	1	3	292	0.01	29.898 
22:35	53.1	53.1	53.1	95	51.7	1	3	292	0.01	29.898 
22:40	53.1	53.1	53.1	95	51.7	0	3	292	0.03	29.898 
22:45	52.9	52.9	52.9	95	51.5	1	2	292	0.04	29.891 
22:50	52.8	52.8	52.8	95	51.4	0	3	292	0.02	29.891 
22:55	52.8	52.8	52.8	95	51.4	1	4	292	0.00	29.891 
23:00	52.8	52.8	52.8	96	51.7	0	1	292	0.02	29.885 
23:05	52.6	52.6	52.6	96	51.5	1	3	292	0.01	29.885 
23:10	52.6	52.6	52.6	96	51.5	1	3	292	0.00	29.885 
23:15	52.6	52.6	52.6	96	51.5	1	3	292	0.01	29.870 
23:20	52.6	52.6	52.6	96	51.5	0	4	292	0.02	29.870 
23:25	52.8	52.8	52.8	96	51.7	1	5	292	0.01	29.870 
23:30	52.8	52.8	52.8	96	51.7	1	4	292	0.02	29.864 
23:35	52.8	52.8	52.8	96	51.7	2	4	292	0.01	29.864 
23:40	52.9	52.9	52.9	96	51.8	1	4	292	0.01	29.864 
23:45	52.9	52.9	52.9	96	51.8	0	2	292	0.02	29.845 
23:50	53.1	53.1	53.1	96	52.0	1	3	292	0.03	29.845 
23:55	53.1	53.1	53.1	96	52.0	1	4	68	0.01	29.845 

CoCoRaHS
IN-AL-39
A2 Web Hosting
Creative Commons License
GoDaddy
search engine by freefind advanced

loaded 2018-11-18 11:05:09 • last modified 2010-11-18 10:43:29
Privacy PolicyDisclaimer
• wx.awcolley.com is powered by PmWiki v.2002016 •
• all content (unless otherwise noted) © 2018 A W Colley